sensor_id;sensor_type;location;lat;lon;timestamp;P1;durP1;ratioP1;P2;durP2;ratioP2
28022;SDS011;67403;50.104;8.758;2024-01-30T00:00:35;46.03;;;19.85;;
28022;SDS011;67403;50.104;8.758;2024-01-30T00:03:02;73.28;;;28.23;;
28022;SDS011;67403;50.104;8.758;2024-01-30T00:05:30;40.53;;;18.00;;
28022;SDS011;67403;50.104;8.758;2024-01-30T00:07:57;33.47;;;16.98;;
28022;SDS011;67403;50.104;8.758;2024-01-30T00:10:26;35.78;;;17.42;;
28022;SDS011;67403;50.104;8.758;2024-01-30T00:12:53;32.90;;;17.52;;
28022;SDS011;67403;50.104;8.758;2024-01-30T00:15:21;35.47;;;16.45;;
28022;SDS011;67403;50.104;8.758;2024-01-30T00:17:48;34.50;;;17.33;;
28022;SDS011;67403;50.104;8.758;2024-01-30T00:20:17;37.33;;;19.70;;
28022;SDS011;67403;50.104;8.758;2024-01-30T00:22:45;34.00;;;18.48;;
28022;SDS011;67403;50.104;8.758;2024-01-30T00:25:12;35.72;;;17.42;;
28022;SDS011;67403;50.104;8.758;2024-01-30T00:27:41;36.15;;;17.63;;
28022;SDS011;67403;50.104;8.758;2024-01-30T00:30:08;35.38;;;17.73;;
28022;SDS011;67403;50.104;8.758;2024-01-30T00:32:36;35.35;;;16.92;;
28022;SDS011;67403;50.104;8.758;2024-01-30T00:35:04;33.85;;;15.63;;
28022;SDS011;67403;50.104;8.758;2024-01-30T00:37:31;32.33;;;15.43;;
28022;SDS011;67403;50.104;8.758;2024-01-30T00:39:58;33.03;;;17.73;;
28022;SDS011;67403;50.104;8.758;2024-01-30T00:42:26;32.78;;;17.52;;
28022;SDS011;67403;50.104;8.758;2024-01-30T00:44:58;32.63;;;16.75;;
28022;SDS011;67403;50.104;8.758;2024-01-30T00:47:28;34.45;;;16.58;;
28022;SDS011;67403;50.104;8.758;2024-01-30T00:49:55;34.58;;;16.45;;
28022;SDS011;67403;50.104;8.758;2024-01-30T00:52:22;28.85;;;15.98;;
28022;SDS011;67403;50.104;8.758;2024-01-30T00:54:50;32.15;;;15.55;;
28022;SDS011;67403;50.104;8.758;2024-01-30T00:57:17;31.75;;;16.13;;
28022;SDS011;67403;50.104;8.758;2024-01-30T00:59:44;33.17;;;15.65;;
28022;SDS011;67403;50.104;8.758;2024-01-30T01:02:13;31.60;;;14.10;;
28022;SDS011;67403;50.104;8.758;2024-01-30T01:04:42;28.20;;;15.13;;
28022;SDS011;67403;50.104;8.758;2024-01-30T01:07:10;29.48;;;14.10;;
28022;SDS011;67403;50.104;8.758;2024-01-30T01:09:37;25.35;;;13.48;;
28022;SDS011;67403;50.104;8.758;2024-01-30T01:12:05;33.80;;;14.68;;
28022;SDS011;67403;50.104;8.758;2024-01-30T01:14:32;25.75;;;14.25;;
28022;SDS011;67403;50.104;8.758;2024-01-30T01:17:00;26.65;;;14.07;;
28022;SDS011;67403;50.104;8.758;2024-01-30T01:19:28;26.90;;;14.27;;
28022;SDS011;67403;50.104;8.758;2024-01-30T01:21:56;23.67;;;14.95;;
28022;SDS011;67403;50.104;8.758;2024-01-30T01:24:23;29.92;;;15.15;;
28022;SDS011;67403;50.104;8.758;2024-01-30T01:26:50;28.95;;;14.07;;
28022;SDS011;67403;50.104;8.758;2024-01-30T01:29:18;29.15;;;14.90;;
28022;SDS011;67403;50.104;8.758;2024-01-30T01:31:46;27.98;;;13.30;;
28022;SDS011;67403;50.104;8.758;2024-01-30T01:34:13;27.60;;;13.48;;
28022;SDS011;67403;50.104;8.758;2024-01-30T01:36:42;27.25;;;13.57;;
28022;SDS011;67403;50.104;8.758;2024-01-30T01:39:09;24.70;;;13.20;;
28022;SDS011;67403;50.104;8.758;2024-01-30T01:41:36;33.30;;;14.27;;
28022;SDS011;67403;50.104;8.758;2024-01-30T01:44:04;30.58;;;14.05;;
28022;SDS011;67403;50.104;8.758;2024-01-30T01:46:32;25.50;;;14.05;;
28022;SDS011;67403;50.104;8.758;2024-01-30T01:49:00;26.52;;;13.25;;
28022;SDS011;67403;50.104;8.758;2024-01-30T01:51:29;20.40;;;12.63;;
28022;SDS011;67403;50.104;8.758;2024-01-30T01:53:59;24.33;;;11.93;;
28022;SDS011;67403;50.104;8.758;2024-01-30T01:56:28;25.48;;;12.02;;
28022;SDS011;67403;50.104;8.758;2024-01-30T01:58:56;25.10;;;12.48;;
28022;SDS011;67403;50.104;8.758;2024-01-30T02:01:24;25.05;;;12.77;;
28022;SDS011;67403;50.104;8.758;2024-01-30T02:03:52;26.40;;;12.77;;
28022;SDS011;67403;50.104;8.758;2024-01-30T02:06:19;28.67;;;14.05;;
28022;SDS011;67403;50.104;8.758;2024-01-30T02:08:47;30.15;;;13.48;;
28022;SDS011;67403;50.104;8.758;2024-01-30T02:11:15;20.38;;;12.00;;
28022;SDS011;67403;50.104;8.758;2024-01-30T02:13:43;25.17;;;13.57;;
28022;SDS011;67403;50.104;8.758;2024-01-30T02:16:11;27.20;;;13.98;;
28022;SDS011;67403;50.104;8.758;2024-01-30T02:18:38;23.20;;;12.75;;
28022;SDS011;67403;50.104;8.758;2024-01-30T02:21:09;30.17;;;13.48;;
28022;SDS011;67403;50.104;8.758;2024-01-30T02:23:37;23.00;;;11.90;;
28022;SDS011;67403;50.104;8.758;2024-01-30T02:26:04;24.10;;;12.88;;
28022;SDS011;67403;50.104;8.758;2024-01-30T02:28:32;23.83;;;12.77;;
28022;SDS011;67403;50.104;8.758;2024-01-30T02:30:59;21.95;;;12.55;;
28022;SDS011;67403;50.104;8.758;2024-01-30T02:33:26;23.13;;;12.10;;
28022;SDS011;67403;50.104;8.758;2024-01-30T02:35:54;21.42;;;11.95;;
28022;SDS011;67403;50.104;8.758;2024-01-30T02:38:22;27.17;;;14.20;;
28022;SDS011;67403;50.104;8.758;2024-01-30T02:40:52;23.83;;;12.35;;
28022;SDS011;67403;50.104;8.758;2024-01-30T02:43:19;26.45;;;12.57;;
28022;SDS011;67403;50.104;8.758;2024-01-30T02:45:46;24.70;;;12.52;;
28022;SDS011;67403;50.104;8.758;2024-01-30T02:48:13;28.42;;;13.20;;
28022;SDS011;67403;50.104;8.758;2024-01-30T02:50:41;22.17;;;12.60;;
28022;SDS011;67403;50.104;8.758;2024-01-30T02:53:08;23.60;;;12.52;;
28022;SDS011;67403;50.104;8.758;2024-01-30T02:55:37;26.10;;;13.00;;
28022;SDS011;67403;50.104;8.758;2024-01-30T02:58:04;21.75;;;11.80;;
28022;SDS011;67403;50.104;8.758;2024-01-30T03:00:32;24.50;;;12.30;;
28022;SDS011;67403;50.104;8.758;2024-01-30T03:02:59;25.00;;;12.90;;
28022;SDS011;67403;50.104;8.758;2024-01-30T03:05:27;27.70;;;12.25;;
28022;SDS011;67403;50.104;8.758;2024-01-30T03:07:54;22.83;;;12.63;;
28022;SDS011;67403;50.104;8.758;2024-01-30T03:10:21;26.20;;;13.20;;
28022;SDS011;67403;50.104;8.758;2024-01-30T03:12:50;21.60;;;11.98;;
28022;SDS011;67403;50.104;8.758;2024-01-30T03:15:17;29.40;;;13.98;;
28022;SDS011;67403;50.104;8.758;2024-01-30T03:17:45;24.98;;;12.23;;
28022;SDS011;67403;50.104;8.758;2024-01-30T03:20:13;25.48;;;12.27;;
28022;SDS011;67403;50.104;8.758;2024-01-30T03:22:40;23.48;;;12.55;;
28022;SDS011;67403;50.104;8.758;2024-01-30T03:25:07;24.52;;;12.65;;
28022;SDS011;67403;50.104;8.758;2024-01-30T03:27:35;25.85;;;12.80;;
28022;SDS011;67403;50.104;8.758;2024-01-30T03:30:04;22.98;;;12.00;;
28022;SDS011;67403;50.104;8.758;2024-01-30T03:32:31;22.13;;;13.00;;
28022;SDS011;67403;50.104;8.758;2024-01-30T03:34:59;23.02;;;12.35;;
28022;SDS011;67403;50.104;8.758;2024-01-30T03:37:26;23.85;;;12.77;;
28022;SDS011;67403;50.104;8.758;2024-01-30T03:39:53;25.98;;;11.60;;
28022;SDS011;67403;50.104;8.758;2024-01-30T03:42:21;25.63;;;12.75;;
28022;SDS011;67403;50.104;8.758;2024-01-30T03:44:48;23.02;;;11.63;;
28022;SDS011;67403;50.104;8.758;2024-01-30T03:47:18;26.27;;;12.65;;
28022;SDS011;67403;50.104;8.758;2024-01-30T03:49:45;23.70;;;12.63;;
28022;SDS011;67403;50.104;8.758;2024-01-30T03:52:13;21.67;;;12.48;;
28022;SDS011;67403;50.104;8.758;2024-01-30T03:54:40;24.80;;;13.02;;
28022;SDS011;67403;50.104;8.758;2024-01-30T03:57:07;26.13;;;12.35;;
28022;SDS011;67403;50.104;8.758;2024-01-30T03:59:35;21.98;;;11.82;;
28022;SDS011;67403;50.104;8.758;2024-01-30T04:02:02;27.70;;;14.00;;
28022;SDS011;67403;50.104;8.758;2024-01-30T04:04:31;25.58;;;13.50;;
28022;SDS011;67403;50.104;8.758;2024-01-30T04:06:58;30.98;;;13.77;;
28022;SDS011;67403;50.104;8.758;2024-01-30T04:09:25;25.73;;;12.98;;
28022;SDS011;67403;50.104;8.758;2024-01-30T04:11:53;25.83;;;13.95;;
28022;SDS011;67403;50.104;8.758;2024-01-30T04:14:21;29.75;;;14.85;;
28022;SDS011;67403;50.104;8.758;2024-01-30T04:16:48;24.85;;;13.05;;
28022;SDS011;67403;50.104;8.758;2024-01-30T04:19:15;26.48;;;13.90;;
28022;SDS011;67403;50.104;8.758;2024-01-30T04:21:44;24.30;;;12.90;;
28022;SDS011;67403;50.104;8.758;2024-01-30T04:24:11;28.38;;;13.73;;
28022;SDS011;67403;50.104;8.758;2024-01-30T04:26:38;23.50;;;12.40;;
28022;SDS011;67403;50.104;8.758;2024-01-30T04:29:06;20.15;;;11.70;;
28022;SDS011;67403;50.104;8.758;2024-01-30T04:31:33;24.80;;;12.80;;
28022;SDS011;67403;50.104;8.758;2024-01-30T04:34:00;23.58;;;11.82;;
28022;SDS011;67403;50.104;8.758;2024-01-30T04:36:27;27.17;;;12.90;;
28022;SDS011;67403;50.104;8.758;2024-01-30T04:38:56;23.50;;;12.25;;
28022;SDS011;67403;50.104;8.758;2024-01-30T04:41:23;25.17;;;12.70;;
28022;SDS011;67403;50.104;8.758;2024-01-30T04:43:51;22.48;;;12.55;;
28022;SDS011;67403;50.104;8.758;2024-01-30T04:46:18;23.73;;;12.95;;
28022;SDS011;67403;50.104;8.758;2024-01-30T04:48:46;29.90;;;13.68;;
28022;SDS011;67403;50.104;8.758;2024-01-30T04:51:13;24.52;;;12.77;;
28022;SDS011;67403;50.104;8.758;2024-01-30T04:53:40;22.67;;;13.38;;
28022;SDS011;67403;50.104;8.758;2024-01-30T04:56:09;26.08;;;12.82;;
28022;SDS011;67403;50.104;8.758;2024-01-30T04:58:36;26.23;;;13.55;;
28022;SDS011;67403;50.104;8.758;2024-01-30T05:01:03;27.92;;;13.43;;
28022;SDS011;67403;50.104;8.758;2024-01-30T05:03:32;27.65;;;12.23;;
28022;SDS011;67403;50.104;8.758;2024-01-30T05:06:00;21.20;;;11.75;;
28022;SDS011;67403;50.104;8.758;2024-01-30T05:08:28;31.02;;;13.52;;
28022;SDS011;67403;50.104;8.758;2024-01-30T05:10:55;26.15;;;12.60;;
28022;SDS011;67403;50.104;8.758;2024-01-30T05:13:24;22.40;;;12.63;;
28022;SDS011;67403;50.104;8.758;2024-01-30T05:15:51;23.70;;;12.23;;
28022;SDS011;67403;50.104;8.758;2024-01-30T05:18:19;21.77;;;11.60;;
28022;SDS011;67403;50.104;8.758;2024-01-30T05:20:46;30.38;;;13.50;;
28022;SDS011;67403;50.104;8.758;2024-01-30T05:23:13;25.30;;;12.77;;
28022;SDS011;67403;50.104;8.758;2024-01-30T05:25:41;24.45;;;12.38;;
28022;SDS011;67403;50.104;8.758;2024-01-30T05:28:08;25.05;;;12.52;;
28022;SDS011;67403;50.104;8.758;2024-01-30T05:30:36;22.70;;;12.88;;
28022;SDS011;67403;50.104;8.758;2024-01-30T05:33:04;22.10;;;11.73;;
28022;SDS011;67403;50.104;8.758;2024-01-30T05:35:31;20.17;;;12.90;;
28022;SDS011;67403;50.104;8.758;2024-01-30T05:37:58;22.98;;;12.98;;
28022;SDS011;67403;50.104;8.758;2024-01-30T05:40:25;24.55;;;12.82;;
28022;SDS011;67403;50.104;8.758;2024-01-30T05:42:53;23.10;;;12.05;;
28022;SDS011;67403;50.104;8.758;2024-01-30T05:45:20;25.90;;;12.93;;
28022;SDS011;67403;50.104;8.758;2024-01-30T05:47:49;22.38;;;12.07;;
28022;SDS011;67403;50.104;8.758;2024-01-30T05:50:17;26.55;;;12.77;;
28022;SDS011;67403;50.104;8.758;2024-01-30T05:52:44;27.75;;;12.88;;
28022;SDS011;67403;50.104;8.758;2024-01-30T05:55:12;23.75;;;12.10;;
28022;SDS011;67403;50.104;8.758;2024-01-30T05:57:39;24.50;;;12.27;;
28022;SDS011;67403;50.104;8.758;2024-01-30T06:00:07;27.63;;;12.15;;
28022;SDS011;67403;50.104;8.758;2024-01-30T06:02:34;22.05;;;12.80;;
28022;SDS011;67403;50.104;8.758;2024-01-30T06:05:03;23.35;;;12.38;;
28022;SDS011;67403;50.104;8.758;2024-01-30T06:07:31;24.42;;;13.32;;
28022;SDS011;67403;50.104;8.758;2024-01-30T06:09:58;20.92;;;12.82;;
28022;SDS011;67403;50.104;8.758;2024-01-30T06:12:26;20.23;;;11.65;;
28022;SDS011;67403;50.104;8.758;2024-01-30T06:14:54;20.17;;;11.68;;
28022;SDS011;67403;50.104;8.758;2024-01-30T06:17:22;23.10;;;12.18;;
28022;SDS011;67403;50.104;8.758;2024-01-30T06:19:49;23.77;;;12.70;;
28022;SDS011;67403;50.104;8.758;2024-01-30T06:22:18;26.13;;;13.25;;
28022;SDS011;67403;50.104;8.758;2024-01-30T06:24:45;34.75;;;13.38;;
28022;SDS011;67403;50.104;8.758;2024-01-30T06:27:13;27.13;;;13.30;;
28022;SDS011;67403;50.104;8.758;2024-01-30T06:29:41;21.42;;;11.98;;
28022;SDS011;67403;50.104;8.758;2024-01-30T06:32:10;27.80;;;13.40;;
28022;SDS011;67403;50.104;8.758;2024-01-30T06:34:37;23.33;;;11.77;;
28022;SDS011;67403;50.104;8.758;2024-01-30T06:37:05;23.27;;;12.82;;
28022;SDS011;67403;50.104;8.758;2024-01-30T06:39:34;26.05;;;13.23;;
28022;SDS011;67403;50.104;8.758;2024-01-30T06:42:01;28.85;;;13.05;;
28022;SDS011;67403;50.104;8.758;2024-01-30T06:44:28;24.55;;;12.77;;
28022;SDS011;67403;50.104;8.758;2024-01-30T06:46:56;27.90;;;12.57;;
28022;SDS011;67403;50.104;8.758;2024-01-30T06:49:23;25.10;;;12.65;;
28022;SDS011;67403;50.104;8.758;2024-01-30T06:51:50;28.02;;;13.07;;
28022;SDS011;67403;50.104;8.758;2024-01-30T06:54:17;25.02;;;13.73;;
28022;SDS011;67403;50.104;8.758;2024-01-30T06:56:46;23.63;;;12.63;;
28022;SDS011;67403;50.104;8.758;2024-01-30T06:59:13;22.85;;;12.95;;
28022;SDS011;67403;50.104;8.758;2024-01-30T07:01:41;28.13;;;13.93;;
28022;SDS011;67403;50.104;8.758;2024-01-30T07:04:08;30.60;;;13.05;;
28022;SDS011;67403;50.104;8.758;2024-01-30T07:06:35;28.63;;;12.95;;
28022;SDS011;67403;50.104;8.758;2024-01-30T07:09:03;26.55;;;13.52;;
28022;SDS011;67403;50.104;8.758;2024-01-30T07:11:30;29.25;;;13.73;;
28022;SDS011;67403;50.104;8.758;2024-01-30T07:13:59;25.35;;;13.20;;
28022;SDS011;67403;50.104;8.758;2024-01-30T07:16:29;24.42;;;12.50;;
28022;SDS011;67403;50.104;8.758;2024-01-30T07:18:56;51.13;;;21.05;;
28022;SDS011;67403;50.104;8.758;2024-01-30T07:21:23;31.33;;;14.93;;
28022;SDS011;67403;50.104;8.758;2024-01-30T07:23:53;23.27;;;12.90;;
28022;SDS011;67403;50.104;8.758;2024-01-30T07:26:20;25.85;;;13.23;;
28022;SDS011;67403;50.104;8.758;2024-01-30T07:28:48;25.73;;;13.05;;
28022;SDS011;67403;50.104;8.758;2024-01-30T07:31:17;26.83;;;13.50;;
28022;SDS011;67403;50.104;8.758;2024-01-30T07:33:46;20.50;;;10.10;;
28022;SDS011;67403;50.104;8.758;2024-01-30T07:36:13;25.55;;;13.70;;
28022;SDS011;67403;50.104;8.758;2024-01-30T07:38:40;27.20;;;13.40;;
28022;SDS011;67403;50.104;8.758;2024-01-30T07:41:08;21.63;;;12.55;;
28022;SDS011;67403;50.104;8.758;2024-01-30T07:43:35;27.17;;;13.15;;
28022;SDS011;67403;50.104;8.758;2024-01-30T07:46:02;21.75;;;12.63;;
28022;SDS011;67403;50.104;8.758;2024-01-30T07:48:32;26.48;;;11.98;;
28022;SDS011;67403;50.104;8.758;2024-01-30T07:51:00;26.77;;;13.77;;
28022;SDS011;67403;50.104;8.758;2024-01-30T07:53:29;25.73;;;13.25;;
28022;SDS011;67403;50.104;8.758;2024-01-30T07:55:56;25.88;;;13.15;;
28022;SDS011;67403;50.104;8.758;2024-01-30T07:58:23;22.48;;;12.90;;
28022;SDS011;67403;50.104;8.758;2024-01-30T08:00:52;24.45;;;12.82;;
28022;SDS011;67403;50.104;8.758;2024-01-30T08:03:22;24.52;;;12.88;;
28022;SDS011;67403;50.104;8.758;2024-01-30T08:05:50;25.67;;;13.00;;
28022;SDS011;67403;50.104;8.758;2024-01-30T08:08:18;26.40;;;12.90;;
28022;SDS011;67403;50.104;8.758;2024-01-30T08:10:45;28.15;;;13.13;;
28022;SDS011;67403;50.104;8.758;2024-01-30T08:13:13;25.58;;;13.60;;
28022;SDS011;67403;50.104;8.758;2024-01-30T08:15:40;24.85;;;13.10;;
28022;SDS011;67403;50.104;8.758;2024-01-30T08:18:08;26.10;;;13.95;;
28022;SDS011;67403;50.104;8.758;2024-01-30T08:20:35;23.02;;;13.40;;
28022;SDS011;67403;50.104;8.758;2024-01-30T08:23:04;26.33;;;13.52;;
28022;SDS011;67403;50.104;8.758;2024-01-30T08:25:31;26.75;;;12.60;;
28022;SDS011;67403;50.104;8.758;2024-01-30T08:27:58;31.55;;;13.80;;
28022;SDS011;67403;50.104;8.758;2024-01-30T08:30:26;29.77;;;15.27;;
28022;SDS011;67403;50.104;8.758;2024-01-30T08:32:53;31.98;;;15.25;;
28022;SDS011;67403;50.104;8.758;2024-01-30T08:35:21;28.92;;;15.27;;
28022;SDS011;67403;50.104;8.758;2024-01-30T08:37:48;29.83;;;15.10;;
28022;SDS011;67403;50.104;8.758;2024-01-30T08:40:17;28.52;;;15.10;;
28022;SDS011;67403;50.104;8.758;2024-01-30T08:42:44;26.38;;;14.57;;
28022;SDS011;67403;50.104;8.758;2024-01-30T08:45:12;30.27;;;14.45;;
28022;SDS011;67403;50.104;8.758;2024-01-30T08:47:40;28.58;;;15.15;;
28022;SDS011;67403;50.104;8.758;2024-01-30T08:50:07;30.70;;;15.23;;
28022;SDS011;67403;50.104;8.758;2024-01-30T08:52:34;35.13;;;14.68;;
28022;SDS011;67403;50.104;8.758;2024-01-30T08:55:02;34.03;;;15.10;;
28022;SDS011;67403;50.104;8.758;2024-01-30T08:57:31;28.35;;;15.38;;
28022;SDS011;67403;50.104;8.758;2024-01-30T08:59:58;27.75;;;14.40;;
28022;SDS011;67403;50.104;8.758;2024-01-30T09:02:25;29.25;;;15.02;;
28022;SDS011;67403;50.104;8.758;2024-01-30T09:04:53;24.13;;;14.15;;
28022;SDS011;67403;50.104;8.758;2024-01-30T09:07:20;28.73;;;15.70;;
28022;SDS011;67403;50.104;8.758;2024-01-30T09:09:47;26.70;;;15.23;;
28022;SDS011;67403;50.104;8.758;2024-01-30T09:12:15;26.98;;;14.32;;
28022;SDS011;67403;50.104;8.758;2024-01-30T09:14:43;30.70;;;15.65;;
28022;SDS011;67403;50.104;8.758;2024-01-30T09:17:10;28.30;;;15.50;;
28022;SDS011;67403;50.104;8.758;2024-01-30T09:19:38;31.90;;;15.05;;
28022;SDS011;67403;50.104;8.758;2024-01-30T09:22:05;61.53;;;27.10;;
28022;SDS011;67403;50.104;8.758;2024-01-30T09:24:33;29.75;;;16.25;;
28022;SDS011;67403;50.104;8.758;2024-01-30T09:27:00;33.33;;;16.20;;
28022;SDS011;67403;50.104;8.758;2024-01-30T09:29:27;29.63;;;15.80;;
28022;SDS011;67403;50.104;8.758;2024-01-30T09:31:56;27.33;;;15.75;;
28022;SDS011;67403;50.104;8.758;2024-01-30T09:34:23;24.58;;;15.07;;
28022;SDS011;67403;50.104;8.758;2024-01-30T09:36:50;26.98;;;15.85;;
28022;SDS011;67403;50.104;8.758;2024-01-30T09:39:18;27.85;;;16.05;;
28022;SDS011;67403;50.104;8.758;2024-01-30T09:41:48;26.52;;;15.73;;
28022;SDS011;67403;50.104;8.758;2024-01-30T09:44:16;26.20;;;16.00;;
28022;SDS011;67403;50.104;8.758;2024-01-30T09:46:43;29.45;;;16.50;;
28022;SDS011;67403;50.104;8.758;2024-01-30T09:49:15;32.67;;;17.10;;
28022;SDS011;67403;50.104;8.758;2024-01-30T09:51:44;29.93;;;17.10;;
28022;SDS011;67403;50.104;8.758;2024-01-30T09:54:12;28.85;;;16.75;;
28022;SDS011;67403;50.104;8.758;2024-01-30T09:56:41;28.60;;;16.27;;
28022;SDS011;67403;50.104;8.758;2024-01-30T09:59:08;34.03;;;17.25;;
28022;SDS011;67403;50.104;8.758;2024-01-30T10:01:35;36.10;;;16.50;;
28022;SDS011;67403;50.104;8.758;2024-01-30T10:04:03;27.02;;;16.05;;
28022;SDS011;67403;50.104;8.758;2024-01-30T10:06:32;27.23;;;16.92;;
28022;SDS011;67403;50.104;8.758;2024-01-30T10:08:59;31.38;;;16.85;;
28022;SDS011;67403;50.104;8.758;2024-01-30T10:11:27;27.65;;;16.58;;
28022;SDS011;67403;50.104;8.758;2024-01-30T10:13:54;30.80;;;17.40;;
28022;SDS011;67403;50.104;8.758;2024-01-30T10:16:21;30.55;;;16.27;;
28022;SDS011;67403;50.104;8.758;2024-01-30T10:18:49;28.30;;;16.83;;
28022;SDS011;67403;50.104;8.758;2024-01-30T10:21:16;35.15;;;17.60;;
28022;SDS011;67403;50.104;8.758;2024-01-30T10:23:45;85.68;;;35.47;;
28022;SDS011;67403;50.104;8.758;2024-01-30T10:26:12;45.15;;;21.60;;
28022;SDS011;67403;50.104;8.758;2024-01-30T10:28:39;29.10;;;17.00;;
28022;SDS011;67403;50.104;8.758;2024-01-30T10:31:06;29.25;;;16.27;;
28022;SDS011;67403;50.104;8.758;2024-01-30T10:33:34;33.40;;;17.25;;
28022;SDS011;67403;50.104;8.758;2024-01-30T10:36:02;34.20;;;17.13;;
28022;SDS011;67403;50.104;8.758;2024-01-30T10:38:30;34.65;;;17.63;;
28022;SDS011;67403;50.104;8.758;2024-01-30T10:41:00;35.10;;;18.23;;
28022;SDS011;67403;50.104;8.758;2024-01-30T10:43:30;33.80;;;18.20;;
28022;SDS011;67403;50.104;8.758;2024-01-30T10:46:00;33.70;;;17.50;;
28022;SDS011;67403;50.104;8.758;2024-01-30T10:48:30;32.17;;;16.80;;
28022;SDS011;67403;50.104;8.758;2024-01-30T10:50:58;34.33;;;18.47;;
28022;SDS011;67403;50.104;8.758;2024-01-30T10:53:26;31.60;;;17.35;;
28022;SDS011;67403;50.104;8.758;2024-01-30T10:55:54;34.50;;;16.98;;
28022;SDS011;67403;50.104;8.758;2024-01-30T10:58:23;31.02;;;16.90;;
28022;SDS011;67403;50.104;8.758;2024-01-30T11:00:54;31.17;;;16.73;;
28022;SDS011;67403;50.104;8.758;2024-01-30T11:03:25;27.45;;;15.77;;
28022;SDS011;67403;50.104;8.758;2024-01-30T11:05:52;31.00;;;16.23;;
28022;SDS011;67403;50.104;8.758;2024-01-30T11:08:23;35.38;;;16.75;;
28022;SDS011;67403;50.104;8.758;2024-01-30T11:10:55;32.28;;;17.92;;
28022;SDS011;67403;50.104;8.758;2024-01-30T11:13:27;33.90;;;18.70;;
28022;SDS011;67403;50.104;8.758;2024-01-30T11:15:56;35.03;;;19.05;;
28022;SDS011;67403;50.104;8.758;2024-01-30T11:18:28;36.40;;;18.10;;
28022;SDS011;67403;50.104;8.758;2024-01-30T11:20:56;32.65;;;17.52;;
28022;SDS011;67403;50.104;8.758;2024-01-30T11:23:24;35.40;;;18.05;;
28022;SDS011;67403;50.104;8.758;2024-01-30T11:25:53;31.98;;;17.33;;
28022;SDS011;67403;50.104;8.758;2024-01-30T11:28:21;25.02;;;15.50;;
28022;SDS011;67403;50.104;8.758;2024-01-30T11:30:50;25.25;;;15.05;;
28022;SDS011;67403;50.104;8.758;2024-01-30T11:33:27;24.02;;;15.35;;
28022;SDS011;67403;50.104;8.758;2024-01-30T11:35:56;24.35;;;15.05;;
28022;SDS011;67403;50.104;8.758;2024-01-30T11:38:24;26.42;;;14.73;;
28022;SDS011;67403;50.104;8.758;2024-01-30T11:40:52;38.33;;;21.27;;
28022;SDS011;67403;50.104;8.758;2024-01-30T11:43:20;27.42;;;15.38;;
28022;SDS011;67403;50.104;8.758;2024-01-30T11:45:47;27.60;;;15.10;;
28022;SDS011;67403;50.104;8.758;2024-01-30T11:48:15;28.38;;;14.13;;
28022;SDS011;67403;50.104;8.758;2024-01-30T11:50:43;24.90;;;13.27;;
28022;SDS011;67403;50.104;8.758;2024-01-30T11:53:10;23.15;;;13.40;;
28022;SDS011;67403;50.104;8.758;2024-01-30T11:55:38;21.73;;;13.00;;
28022;SDS011;67403;50.104;8.758;2024-01-30T11:58:05;20.25;;;11.80;;
28022;SDS011;67403;50.104;8.758;2024-01-30T12:00:32;20.13;;;12.85;;
28022;SDS011;67403;50.104;8.758;2024-01-30T12:03:00;20.38;;;12.93;;
28022;SDS011;67403;50.104;8.758;2024-01-30T12:05:29;24.63;;;13.30;;
28022;SDS011;67403;50.104;8.758;2024-01-30T12:07:57;20.73;;;12.27;;
28022;SDS011;67403;50.104;8.758;2024-01-30T12:10:24;19.73;;;12.88;;
28022;SDS011;67403;50.104;8.758;2024-01-30T12:12:52;20.88;;;12.25;;
28022;SDS011;67403;50.104;8.758;2024-01-30T12:15:21;18.40;;;11.98;;
28022;SDS011;67403;50.104;8.758;2024-01-30T12:17:49;19.75;;;12.20;;
28022;SDS011;67403;50.104;8.758;2024-01-30T12:20:17;21.92;;;12.55;;
28022;SDS011;67403;50.104;8.758;2024-01-30T12:22:48;21.48;;;12.60;;
28022;SDS011;67403;50.104;8.758;2024-01-30T12:25:17;21.33;;;12.18;;
28022;SDS011;67403;50.104;8.758;2024-01-30T12:27:45;18.23;;;11.55;;
28022;SDS011;67403;50.104;8.758;2024-01-30T12:30:15;22.35;;;12.07;;
28022;SDS011;67403;50.104;8.758;2024-01-30T12:32:43;17.95;;;12.15;;
28022;SDS011;67403;50.104;8.758;2024-01-30T12:35:10;22.90;;;11.55;;
28022;SDS011;67403;50.104;8.758;2024-01-30T12:37:38;18.52;;;11.75;;
28022;SDS011;67403;50.104;8.758;2024-01-30T12:40:07;45.42;;;21.63;;
28022;SDS011;67403;50.104;8.758;2024-01-30T12:42:34;23.60;;;13.63;;
28022;SDS011;67403;50.104;8.758;2024-01-30T12:45:02;19.00;;;11.50;;
28022;SDS011;67403;50.104;8.758;2024-01-30T12:47:30;20.23;;;11.50;;
28022;SDS011;67403;50.104;8.758;2024-01-30T12:49:57;19.42;;;11.77;;
28022;SDS011;67403;50.104;8.758;2024-01-30T12:52:25;18.40;;;11.20;;
28022;SDS011;67403;50.104;8.758;2024-01-30T12:54:52;20.98;;;12.25;;
28022;SDS011;67403;50.104;8.758;2024-01-30T12:57:21;15.80;;;10.90;;
28022;SDS011;67403;50.104;8.758;2024-01-30T12:59:48;21.17;;;11.68;;
28022;SDS011;67403;50.104;8.758;2024-01-30T13:02:15;24.20;;;12.98;;
28022;SDS011;67403;50.104;8.758;2024-01-30T13:04:43;18.73;;;11.15;;
28022;SDS011;67403;50.104;8.758;2024-01-30T13:07:10;23.33;;;12.05;;
28022;SDS011;67403;50.104;8.758;2024-01-30T13:09:38;20.15;;;12.77;;
28022;SDS011;67403;50.104;8.758;2024-01-30T13:12:05;23.33;;;13.13;;
28022;SDS011;67403;50.104;8.758;2024-01-30T13:14:34;23.17;;;12.20;;
28022;SDS011;67403;50.104;8.758;2024-01-30T13:17:01;21.73;;;12.65;;
28022;SDS011;67403;50.104;8.758;2024-01-30T13:19:29;20.10;;;12.77;;
28022;SDS011;67403;50.104;8.758;2024-01-30T13:21:57;24.17;;;13.27;;
28022;SDS011;67403;50.104;8.758;2024-01-30T13:24:24;21.90;;;12.10;;
28022;SDS011;67403;50.104;8.758;2024-01-30T13:26:52;21.30;;;13.43;;
28022;SDS011;67403;50.104;8.758;2024-01-30T13:29:19;20.08;;;12.02;;
28022;SDS011;67403;50.104;8.758;2024-01-30T13:31:48;21.77;;;13.07;;
28022;SDS011;67403;50.104;8.758;2024-01-30T13:34:15;20.60;;;12.65;;
28022;SDS011;67403;50.104;8.758;2024-01-30T13:36:42;19.15;;;11.95;;
28022;SDS011;67403;50.104;8.758;2024-01-30T13:39:10;23.58;;;12.85;;
28022;SDS011;67403;50.104;8.758;2024-01-30T13:41:37;22.40;;;12.48;;
28022;SDS011;67403;50.104;8.758;2024-01-30T13:44:05;19.70;;;12.05;;
28022;SDS011;67403;50.104;8.758;2024-01-30T13:46:32;20.10;;;12.43;;
28022;SDS011;67403;50.104;8.758;2024-01-30T13:49:01;21.80;;;13.18;;
28022;SDS011;67403;50.104;8.758;2024-01-30T13:51:28;20.92;;;12.07;;
28022;SDS011;67403;50.104;8.758;2024-01-30T13:53:55;22.55;;;12.48;;
28022;SDS011;67403;50.104;8.758;2024-01-30T13:56:23;15.60;;;10.65;;
28022;SDS011;67403;50.104;8.758;2024-01-30T13:58:52;20.73;;;12.35;;
28022;SDS011;67403;50.104;8.758;2024-01-30T14:01:21;54.08;;;22.35;;
28022;SDS011;67403;50.104;8.758;2024-01-30T14:03:48;27.05;;;13.90;;
28022;SDS011;67403;50.104;8.758;2024-01-30T14:06:16;21.80;;;12.55;;
28022;SDS011;67403;50.104;8.758;2024-01-30T14:08:44;23.05;;;12.48;;
28022;SDS011;67403;50.104;8.758;2024-01-30T14:11:11;28.02;;;12.85;;
28022;SDS011;67403;50.104;8.758;2024-01-30T14:13:38;22.58;;;11.75;;
28022;SDS011;67403;50.104;8.758;2024-01-30T14:16:06;24.10;;;13.32;;
28022;SDS011;67403;50.104;8.758;2024-01-30T14:18:33;25.83;;;13.15;;
28022;SDS011;67403;50.104;8.758;2024-01-30T14:21:00;22.42;;;13.45;;
28022;SDS011;67403;50.104;8.758;2024-01-30T14:23:29;22.60;;;12.50;;